sensor_id;sensor_type;location;lat;lon;timestamp;P1;durP1;ratioP1;P2;durP2;ratioP2
56537;SDS011;42435;53.292;6.000;2023-05-07T00:01:43;42.50;;;25.95;;
56537;SDS011;42435;53.292;6.000;2023-05-07T00:04:09;45.67;;;26.02;;
56537;SDS011;42435;53.292;6.000;2023-05-07T00:06:37;45.47;;;27.70;;
56537;SDS011;42435;53.292;6.000;2023-05-07T00:09:03;43.95;;;26.95;;
56537;SDS011;42435;53.292;6.000;2023-05-07T00:11:29;52.42;;;29.48;;
56537;SDS011;42435;53.292;6.000;2023-05-07T00:13:55;45.85;;;27.73;;
56537;SDS011;42435;53.292;6.000;2023-05-07T00:16:20;39.42;;;25.58;;
56537;SDS011;42435;53.292;6.000;2023-05-07T00:18:47;45.08;;;27.75;;
56537;SDS011;42435;53.292;6.000;2023-05-07T00:21:13;42.35;;;27.20;;
56537;SDS011;42435;53.292;6.000;2023-05-07T00:23:39;46.65;;;28.83;;
56537;SDS011;42435;53.292;6.000;2023-05-07T00:26:04;41.75;;;27.73;;
56537;SDS011;42435;53.292;6.000;2023-05-07T00:28:33;39.30;;;26.83;;
56537;SDS011;42435;53.292;6.000;2023-05-07T00:30:59;40.13;;;26.48;;
56537;SDS011;42435;53.292;6.000;2023-05-07T00:33:29;40.10;;;25.63;;
56537;SDS011;42435;53.292;6.000;2023-05-07T00:35:56;52.28;;;30.00;;
56537;SDS011;42435;53.292;6.000;2023-05-07T00:38:25;40.90;;;26.55;;
56537;SDS011;42435;53.292;6.000;2023-05-07T00:40:51;52.67;;;30.27;;
56537;SDS011;42435;53.292;6.000;2023-05-07T00:43:17;42.72;;;27.67;;
56537;SDS011;42435;53.292;6.000;2023-05-07T00:45:42;47.03;;;30.02;;
56537;SDS011;42435;53.292;6.000;2023-05-07T00:48:11;47.78;;;29.55;;
56537;SDS011;42435;53.292;6.000;2023-05-07T00:50:37;51.90;;;30.98;;
56537;SDS011;42435;53.292;6.000;2023-05-07T00:53:02;58.47;;;31.88;;
56537;SDS011;42435;53.292;6.000;2023-05-07T00:55:29;51.22;;;30.33;;
56537;SDS011;42435;53.292;6.000;2023-05-07T00:57:55;40.42;;;27.75;;
56537;SDS011;42435;53.292;6.000;2023-05-07T01:00:21;49.25;;;29.92;;
56537;SDS011;42435;53.292;6.000;2023-05-07T01:02:46;44.30;;;29.35;;
56537;SDS011;42435;53.292;6.000;2023-05-07T01:05:12;42.15;;;27.30;;
56537;SDS011;42435;53.292;6.000;2023-05-07T01:07:40;54.88;;;31.02;;
56537;SDS011;42435;53.292;6.000;2023-05-07T01:10:07;61.90;;;34.05;;
56537;SDS011;42435;53.292;6.000;2023-05-07T01:12:35;62.70;;;33.92;;
56537;SDS011;42435;53.292;6.000;2023-05-07T01:15:02;57.17;;;33.58;;
56537;SDS011;42435;53.292;6.000;2023-05-07T01:17:29;55.35;;;31.38;;
56537;SDS011;42435;53.292;6.000;2023-05-07T01:19:57;50.08;;;30.65;;
56537;SDS011;42435;53.292;6.000;2023-05-07T01:22:30;63.65;;;34.80;;
56537;SDS011;42435;53.292;6.000;2023-05-07T01:24:57;65.82;;;36.13;;
56537;SDS011;42435;53.292;6.000;2023-05-07T01:27:26;67.47;;;35.25;;
56537;SDS011;42435;53.292;6.000;2023-05-07T01:29:52;47.50;;;31.80;;
56537;SDS011;42435;53.292;6.000;2023-05-07T01:32:22;54.88;;;32.92;;
56537;SDS011;42435;53.292;6.000;2023-05-07T01:34:58;51.70;;;32.08;;
56537;SDS011;42435;53.292;6.000;2023-05-07T01:37:25;54.03;;;32.47;;
56537;SDS011;42435;53.292;6.000;2023-05-07T01:39:52;71.97;;;37.20;;
56537;SDS011;42435;53.292;6.000;2023-05-07T01:42:18;60.10;;;32.22;;
56537;SDS011;42435;53.292;6.000;2023-05-07T01:44:44;49.47;;;34.17;;
56537;SDS011;42435;53.292;6.000;2023-05-07T01:47:11;53.22;;;31.92;;
56537;SDS011;42435;53.292;6.000;2023-05-07T01:49:38;53.10;;;32.47;;
56537;SDS011;42435;53.292;6.000;2023-05-07T01:52:04;73.30;;;36.13;;
56537;SDS011;42435;53.292;6.000;2023-05-07T01:54:30;67.88;;;35.53;;
56537;SDS011;42435;53.292;6.000;2023-05-07T01:56:56;55.30;;;32.70;;
56537;SDS011;42435;53.292;6.000;2023-05-07T01:59:22;55.72;;;32.72;;
56537;SDS011;42435;53.292;6.000;2023-05-07T02:01:48;51.72;;;31.02;;
56537;SDS011;42435;53.292;6.000;2023-05-07T02:04:14;54.42;;;33.20;;
56537;SDS011;42435;53.292;6.000;2023-05-07T02:06:40;60.10;;;34.15;;
56537;SDS011;42435;53.292;6.000;2023-05-07T02:09:06;50.50;;;31.88;;
56537;SDS011;42435;53.292;6.000;2023-05-07T02:11:33;66.93;;;34.17;;
56537;SDS011;42435;53.292;6.000;2023-05-07T02:13:59;62.33;;;35.38;;
56537;SDS011;42435;53.292;6.000;2023-05-07T02:16:25;54.85;;;32.38;;
56537;SDS011;42435;53.292;6.000;2023-05-07T02:18:50;49.95;;;30.88;;
56537;SDS011;42435;53.292;6.000;2023-05-07T02:21:16;51.88;;;32.00;;
56537;SDS011;42435;53.292;6.000;2023-05-07T02:23:42;53.25;;;32.70;;
56537;SDS011;42435;53.292;6.000;2023-05-07T02:26:08;50.90;;;32.45;;
56537;SDS011;42435;53.292;6.000;2023-05-07T02:28:36;48.65;;;32.42;;
56537;SDS011;42435;53.292;6.000;2023-05-07T02:31:05;51.92;;;31.75;;
56537;SDS011;42435;53.292;6.000;2023-05-07T02:33:30;48.33;;;30.45;;
56537;SDS011;42435;53.292;6.000;2023-05-07T02:35:56;53.95;;;32.38;;
56537;SDS011;42435;53.292;6.000;2023-05-07T02:38:22;53.35;;;32.63;;
56537;SDS011;42435;53.292;6.000;2023-05-07T02:40:48;53.90;;;31.77;;
56537;SDS011;42435;53.292;6.000;2023-05-07T02:43:15;51.13;;;29.30;;
56537;SDS011;42435;53.292;6.000;2023-05-07T02:45:40;46.47;;;29.90;;
56537;SDS011;42435;53.292;6.000;2023-05-07T02:48:09;50.25;;;29.73;;
56537;SDS011;42435;53.292;6.000;2023-05-07T02:50:34;54.83;;;31.35;;
56537;SDS011;42435;53.292;6.000;2023-05-07T02:53:00;59.10;;;31.83;;
56537;SDS011;42435;53.292;6.000;2023-05-07T02:55:30;55.28;;;31.92;;
56537;SDS011;42435;53.292;6.000;2023-05-07T02:57:56;44.00;;;29.38;;
56537;SDS011;42435;53.292;6.000;2023-05-07T03:00:21;50.80;;;30.67;;
56537;SDS011;42435;53.292;6.000;2023-05-07T03:02:47;58.55;;;33.30;;
56537;SDS011;42435;53.292;6.000;2023-05-07T03:05:13;60.55;;;32.20;;
56537;SDS011;42435;53.292;6.000;2023-05-07T03:07:39;50.88;;;29.65;;
56537;SDS011;42435;53.292;6.000;2023-05-07T03:10:06;48.65;;;29.67;;
56537;SDS011;42435;53.292;6.000;2023-05-07T03:12:31;48.65;;;31.00;;
56537;SDS011;42435;53.292;6.000;2023-05-07T03:14:57;50.45;;;31.13;;
56537;SDS011;42435;53.292;6.000;2023-05-07T03:17:23;54.70;;;31.33;;
56537;SDS011;42435;53.292;6.000;2023-05-07T03:19:48;49.67;;;31.60;;
56537;SDS011;42435;53.292;6.000;2023-05-07T03:22:14;53.58;;;31.38;;
56537;SDS011;42435;53.292;6.000;2023-05-07T03:24:40;63.22;;;33.17;;
56537;SDS011;42435;53.292;6.000;2023-05-07T03:27:05;50.50;;;31.95;;
56537;SDS011;42435;53.292;6.000;2023-05-07T03:29:32;52.90;;;32.10;;
56537;SDS011;42435;53.292;6.000;2023-05-07T03:31:57;67.85;;;33.75;;
56537;SDS011;42435;53.292;6.000;2023-05-07T03:34:23;82.07;;;38.15;;
56537;SDS011;42435;53.292;6.000;2023-05-07T03:36:49;48.10;;;30.42;;
56537;SDS011;42435;53.292;6.000;2023-05-07T03:39:14;55.03;;;32.05;;
56537;SDS011;42435;53.292;6.000;2023-05-07T03:41:43;60.92;;;33.65;;
56537;SDS011;42435;53.292;6.000;2023-05-07T03:44:09;69.70;;;35.00;;
56537;SDS011;42435;53.292;6.000;2023-05-07T03:46:34;54.80;;;32.90;;
56537;SDS011;42435;53.292;6.000;2023-05-07T03:49:00;80.72;;;36.80;;
56537;SDS011;42435;53.292;6.000;2023-05-07T03:51:26;65.57;;;35.13;;
56537;SDS011;42435;53.292;6.000;2023-05-07T03:53:51;56.45;;;33.97;;
56537;SDS011;42435;53.292;6.000;2023-05-07T03:56:22;59.60;;;33.10;;
56537;SDS011;42435;53.292;6.000;2023-05-07T03:58:48;57.60;;;32.70;;
56537;SDS011;42435;53.292;6.000;2023-05-07T04:01:13;63.90;;;35.22;;
56537;SDS011;42435;53.292;6.000;2023-05-07T04:03:39;81.40;;;38.50;;
56537;SDS011;42435;53.292;6.000;2023-05-07T04:06:05;60.67;;;33.05;;
56537;SDS011;42435;53.292;6.000;2023-05-07T04:08:31;64.88;;;35.40;;
56537;SDS011;42435;53.292;6.000;2023-05-07T04:10:57;62.40;;;34.15;;
56537;SDS011;42435;53.292;6.000;2023-05-07T04:13:23;109.57;;;41.63;;
56537;SDS011;42435;53.292;6.000;2023-05-07T04:15:53;63.53;;;35.75;;
56537;SDS011;42435;53.292;6.000;2023-05-07T04:18:20;89.68;;;40.10;;
56537;SDS011;42435;53.292;6.000;2023-05-07T04:20:46;73.57;;;36.60;;
56537;SDS011;42435;53.292;6.000;2023-05-07T04:23:12;66.43;;;34.58;;
56537;SDS011;42435;53.292;6.000;2023-05-07T04:25:38;64.97;;;35.80;;
56537;SDS011;42435;53.292;6.000;2023-05-07T04:28:04;62.58;;;34.10;;
56537;SDS011;42435;53.292;6.000;2023-05-07T04:30:30;63.72;;;35.00;;
56537;SDS011;42435;53.292;6.000;2023-05-07T04:32:56;77.63;;;38.45;;
56537;SDS011;42435;53.292;6.000;2023-05-07T04:35:22;68.18;;;35.55;;
56537;SDS011;42435;53.292;6.000;2023-05-07T04:37:48;74.95;;;35.70;;
56537;SDS011;42435;53.292;6.000;2023-05-07T04:40:13;67.57;;;37.28;;
56537;SDS011;42435;53.292;6.000;2023-05-07T04:42:39;64.68;;;33.70;;
56537;SDS011;42435;53.292;6.000;2023-05-07T04:45:05;64.78;;;35.40;;
56537;SDS011;42435;53.292;6.000;2023-05-07T04:47:31;78.20;;;39.05;;
56537;SDS011;42435;53.292;6.000;2023-05-07T04:50:00;63.10;;;34.67;;
56537;SDS011;42435;53.292;6.000;2023-05-07T04:52:25;77.85;;;37.55;;
56537;SDS011;42435;53.292;6.000;2023-05-07T04:54:51;74.47;;;37.92;;
56537;SDS011;42435;53.292;6.000;2023-05-07T04:57:17;68.95;;;36.03;;
56537;SDS011;42435;53.292;6.000;2023-05-07T04:59:43;67.80;;;35.97;;
56537;SDS011;42435;53.292;6.000;2023-05-07T05:02:10;80.60;;;37.05;;
56537;SDS011;42435;53.292;6.000;2023-05-07T05:04:35;67.25;;;36.55;;
56537;SDS011;42435;53.292;6.000;2023-05-07T05:07:02;72.20;;;37.63;;
56537;SDS011;42435;53.292;6.000;2023-05-07T05:09:29;68.03;;;35.38;;
56537;SDS011;42435;53.292;6.000;2023-05-07T05:11:54;61.47;;;35.05;;
56537;SDS011;42435;53.292;6.000;2023-05-07T05:14:20;64.28;;;36.00;;
56537;SDS011;42435;53.292;6.000;2023-05-07T05:16:46;61.63;;;35.60;;
56537;SDS011;42435;53.292;6.000;2023-05-07T05:19:11;69.90;;;37.10;;
56537;SDS011;42435;53.292;6.000;2023-05-07T05:21:37;66.18;;;37.17;;
56537;SDS011;42435;53.292;6.000;2023-05-07T05:24:06;64.35;;;34.63;;
56537;SDS011;42435;53.292;6.000;2023-05-07T05:26:31;61.25;;;34.67;;
56537;SDS011;42435;53.292;6.000;2023-05-07T05:28:57;70.90;;;37.55;;
56537;SDS011;42435;53.292;6.000;2023-05-07T05:31:25;59.92;;;34.30;;
56537;SDS011;42435;53.292;6.000;2023-05-07T05:33:52;64.60;;;34.97;;
56537;SDS011;42435;53.292;6.000;2023-05-07T05:36:20;56.50;;;31.88;;
56537;SDS011;42435;53.292;6.000;2023-05-07T05:38:45;53.95;;;32.92;;
56537;SDS011;42435;53.292;6.000;2023-05-07T05:41:12;51.75;;;31.17;;
56537;SDS011;42435;53.292;6.000;2023-05-07T05:43:38;53.67;;;33.42;;
56537;SDS011;42435;53.292;6.000;2023-05-07T05:46:03;60.60;;;33.70;;
56537;SDS011;42435;53.292;6.000;2023-05-07T05:48:29;69.85;;;34.95;;
56537;SDS011;42435;53.292;6.000;2023-05-07T05:50:55;54.60;;;33.95;;
56537;SDS011;42435;53.292;6.000;2023-05-07T05:53:21;53.63;;;32.17;;
56537;SDS011;42435;53.292;6.000;2023-05-07T05:55:49;55.38;;;33.13;;
56537;SDS011;42435;53.292;6.000;2023-05-07T05:58:16;52.05;;;31.90;;
56537;SDS011;42435;53.292;6.000;2023-05-07T06:00:44;53.17;;;30.80;;
56537;SDS011;42435;53.292;6.000;2023-05-07T06:03:10;49.05;;;29.35;;
56537;SDS011;42435;53.292;6.000;2023-05-07T06:05:36;51.05;;;31.15;;
56537;SDS011;42435;53.292;6.000;2023-05-07T06:08:03;50.30;;;29.80;;
56537;SDS011;42435;53.292;6.000;2023-05-07T06:10:29;44.45;;;28.45;;
56537;SDS011;42435;53.292;6.000;2023-05-07T06:12:55;62.90;;;33.55;;
56537;SDS011;42435;53.292;6.000;2023-05-07T06:15:21;48.63;;;30.52;;
56537;SDS011;42435;53.292;6.000;2023-05-07T06:17:47;50.53;;;29.95;;
56537;SDS011;42435;53.292;6.000;2023-05-07T06:20:15;47.20;;;31.48;;
56537;SDS011;42435;53.292;6.000;2023-05-07T06:22:41;49.10;;;29.05;;
56537;SDS011;42435;53.292;6.000;2023-05-07T06:25:07;45.03;;;28.05;;
56537;SDS011;42435;53.292;6.000;2023-05-07T06:27:34;46.08;;;29.92;;
56537;SDS011;42435;53.292;6.000;2023-05-07T06:30:00;46.20;;;29.70;;
56537;SDS011;42435;53.292;6.000;2023-05-07T06:32:26;61.92;;;31.65;;
56537;SDS011;42435;53.292;6.000;2023-05-07T06:34:53;48.00;;;28.83;;
56537;SDS011;42435;53.292;6.000;2023-05-07T06:37:19;54.78;;;31.80;;
56537;SDS011;42435;53.292;6.000;2023-05-07T06:39:45;57.15;;;30.95;;
56537;SDS011;42435;53.292;6.000;2023-05-07T06:42:10;45.22;;;28.63;;
56537;SDS011;42435;53.292;6.000;2023-05-07T06:44:36;51.35;;;31.35;;
56537;SDS011;42435;53.292;6.000;2023-05-07T06:47:04;47.72;;;29.92;;
56537;SDS011;42435;53.292;6.000;2023-05-07T06:49:30;41.88;;;28.23;;
56537;SDS011;42435;53.292;6.000;2023-05-07T06:51:56;43.90;;;28.00;;
56537;SDS011;42435;53.292;6.000;2023-05-07T06:54:22;41.30;;;25.75;;
56537;SDS011;42435;53.292;6.000;2023-05-07T06:56:48;44.30;;;28.40;;
56537;SDS011;42435;53.292;6.000;2023-05-07T06:59:14;47.20;;;28.88;;
56537;SDS011;42435;53.292;6.000;2023-05-07T07:01:41;55.60;;;32.22;;
56537;SDS011;42435;53.292;6.000;2023-05-07T07:04:07;44.17;;;27.95;;
56537;SDS011;42435;53.292;6.000;2023-05-07T07:06:32;46.17;;;28.42;;
56537;SDS011;42435;53.292;6.000;2023-05-07T07:08:58;48.50;;;29.35;;
56537;SDS011;42435;53.292;6.000;2023-05-07T07:11:25;42.67;;;29.27;;
56537;SDS011;42435;53.292;6.000;2023-05-07T07:13:50;42.08;;;27.15;;
56537;SDS011;42435;53.292;6.000;2023-05-07T07:16:16;44.38;;;28.30;;
56537;SDS011;42435;53.292;6.000;2023-05-07T07:18:42;44.83;;;26.88;;
56537;SDS011;42435;53.292;6.000;2023-05-07T07:21:09;39.85;;;26.02;;
56537;SDS011;42435;53.292;6.000;2023-05-07T07:23:34;39.63;;;27.15;;
56537;SDS011;42435;53.292;6.000;2023-05-07T07:26:00;37.92;;;26.25;;
56537;SDS011;42435;53.292;6.000;2023-05-07T07:28:26;39.97;;;25.67;;
56537;SDS011;42435;53.292;6.000;2023-05-07T07:30:52;43.45;;;27.17;;
56537;SDS011;42435;53.292;6.000;2023-05-07T07:33:17;42.10;;;27.30;;
56537;SDS011;42435;53.292;6.000;2023-05-07T07:35:43;39.60;;;26.70;;
56537;SDS011;42435;53.292;6.000;2023-05-07T07:38:11;44.45;;;28.65;;
56537;SDS011;42435;53.292;6.000;2023-05-07T07:40:37;43.45;;;28.00;;
56537;SDS011;42435;53.292;6.000;2023-05-07T07:43:02;40.03;;;24.95;;
56537;SDS011;42435;53.292;6.000;2023-05-07T07:45:28;41.72;;;27.40;;
56537;SDS011;42435;53.292;6.000;2023-05-07T07:47:54;40.60;;;25.23;;
56537;SDS011;42435;53.292;6.000;2023-05-07T07:50:21;36.58;;;24.98;;
56537;SDS011;42435;53.292;6.000;2023-05-07T07:52:46;36.70;;;24.95;;
56537;SDS011;42435;53.292;6.000;2023-05-07T07:55:19;38.47;;;24.27;;
56537;SDS011;42435;53.292;6.000;2023-05-07T07:57:47;38.53;;;26.42;;
56537;SDS011;42435;53.292;6.000;2023-05-07T08:00:14;37.38;;;25.75;;
56537;SDS011;42435;53.292;6.000;2023-05-07T08:02:40;39.58;;;26.15;;
56537;SDS011;42435;53.292;6.000;2023-05-07T08:05:06;38.17;;;25.88;;
56537;SDS011;42435;53.292;6.000;2023-05-07T08:07:35;37.55;;;24.58;;
56537;SDS011;42435;53.292;6.000;2023-05-07T08:10:01;39.83;;;25.42;;
56537;SDS011;42435;53.292;6.000;2023-05-07T08:12:27;38.65;;;24.67;;
56537;SDS011;42435;53.292;6.000;2023-05-07T08:14:53;37.53;;;24.70;;
56537;SDS011;42435;53.292;6.000;2023-05-07T08:17:18;40.78;;;27.08;;
56537;SDS011;42435;53.292;6.000;2023-05-07T08:19:44;36.70;;;23.73;;
56537;SDS011;42435;53.292;6.000;2023-05-07T08:22:10;37.08;;;24.75;;
56537;SDS011;42435;53.292;6.000;2023-05-07T08:24:36;32.17;;;21.60;;
56537;SDS011;42435;53.292;6.000;2023-05-07T08:27:01;36.65;;;23.73;;
56537;SDS011;42435;53.292;6.000;2023-05-07T08:29:28;35.95;;;24.50;;
56537;SDS011;42435;53.292;6.000;2023-05-07T08:31:54;32.95;;;23.92;;
56537;SDS011;42435;53.292;6.000;2023-05-07T08:34:21;35.25;;;23.88;;
56537;SDS011;42435;53.292;6.000;2023-05-07T08:36:47;34.40;;;24.40;;
56537;SDS011;42435;53.292;6.000;2023-05-07T08:39:13;33.20;;;24.15;;
56537;SDS011;42435;53.292;6.000;2023-05-07T08:41:44;33.80;;;23.42;;
56537;SDS011;42435;53.292;6.000;2023-05-07T08:44:11;33.17;;;22.55;;
56537;SDS011;42435;53.292;6.000;2023-05-07T08:46:39;33.72;;;22.88;;
56537;SDS011;42435;53.292;6.000;2023-05-07T08:49:05;35.83;;;24.98;;
56537;SDS011;42435;53.292;6.000;2023-05-07T08:51:31;32.17;;;22.00;;
56537;SDS011;42435;53.292;6.000;2023-05-07T08:53:56;33.83;;;23.42;;
56537;SDS011;42435;53.292;6.000;2023-05-07T08:56:23;34.50;;;23.58;;
56537;SDS011;42435;53.292;6.000;2023-05-07T08:58:50;35.05;;;24.25;;
56537;SDS011;42435;53.292;6.000;2023-05-07T09:01:19;34.53;;;25.23;;
56537;SDS011;42435;53.292;6.000;2023-05-07T09:03:45;32.53;;;22.20;;
56537;SDS011;42435;53.292;6.000;2023-05-07T09:06:11;29.92;;;21.60;;
56537;SDS011;42435;53.292;6.000;2023-05-07T09:08:40;31.08;;;22.48;;
56537;SDS011;42435;53.292;6.000;2023-05-07T09:11:06;32.45;;;22.85;;
56537;SDS011;42435;53.292;6.000;2023-05-07T09:13:31;31.90;;;23.50;;
56537;SDS011;42435;53.292;6.000;2023-05-07T09:15:57;29.00;;;21.48;;
56537;SDS011;42435;53.292;6.000;2023-05-07T09:18:25;34.70;;;24.17;;
56537;SDS011;42435;53.292;6.000;2023-05-07T09:20:50;32.13;;;23.77;;
56537;SDS011;42435;53.292;6.000;2023-05-07T09:23:16;32.97;;;22.67;;
56537;SDS011;42435;53.292;6.000;2023-05-07T09:25:42;32.03;;;22.60;;
56537;SDS011;42435;53.292;6.000;2023-05-07T09:28:07;35.10;;;24.05;;
56537;SDS011;42435;53.292;6.000;2023-05-07T09:30:36;31.38;;;22.90;;
56537;SDS011;42435;53.292;6.000;2023-05-07T09:33:02;32.10;;;24.08;;
56537;SDS011;42435;53.292;6.000;2023-05-07T09:35:29;32.30;;;22.30;;
56537;SDS011;42435;53.292;6.000;2023-05-07T09:37:59;30.63;;;22.75;;
56537;SDS011;42435;53.292;6.000;2023-05-07T09:40:26;33.17;;;23.45;;
56537;SDS011;42435;53.292;6.000;2023-05-07T09:42:53;31.52;;;22.98;;
56537;SDS011;42435;53.292;6.000;2023-05-07T09:47:53;34.67;;;24.20;;
56537;SDS011;42435;53.292;6.000;2023-05-07T09:50:27;34.30;;;24.02;;
56537;SDS011;42435;53.292;6.000;2023-05-07T09:52:55;31.88;;;22.63;;
56537;SDS011;42435;53.292;6.000;2023-05-07T09:55:22;33.50;;;23.13;;
56537;SDS011;42435;53.292;6.000;2023-05-07T09:57:51;32.95;;;23.98;;
56537;SDS011;42435;53.292;6.000;2023-05-07T10:00:19;33.50;;;22.85;;
56537;SDS011;42435;53.292;6.000;2023-05-07T10:02:46;31.88;;;23.13;;
56537;SDS011;42435;53.292;6.000;2023-05-07T10:05:14;30.98;;;22.63;;
56537;SDS011;42435;53.292;6.000;2023-05-07T10:07:41;30.35;;;22.23;;
56537;SDS011;42435;53.292;6.000;2023-05-07T10:10:11;31.35;;;23.77;;
56537;SDS011;42435;53.292;6.000;2023-05-07T10:12:42;33.95;;;22.88;;
56537;SDS011;42435;53.292;6.000;2023-05-07T10:15:08;32.42;;;23.13;;
56537;SDS011;42435;53.292;6.000;2023-05-07T10:17:40;29.50;;;22.10;;
56537;SDS011;42435;53.292;6.000;2023-05-07T10:20:06;32.50;;;23.15;;
56537;SDS011;42435;53.292;6.000;2023-05-07T10:22:43;32.28;;;23.00;;
56537;SDS011;42435;53.292;6.000;2023-05-07T10:25:18;29.02;;;21.58;;
56537;SDS011;42435;53.292;6.000;2023-05-07T10:27:47;30.40;;;22.63;;
56537;SDS011;42435;53.292;6.000;2023-05-07T10:30:26;32.17;;;22.27;;
56537;SDS011;42435;53.292;6.000;2023-05-07T10:33:04;29.35;;;21.73;;
56537;SDS011;42435;53.292;6.000;2023-05-07T10:35:40;27.65;;;21.95;;
56537;SDS011;42435;53.292;6.000;2023-05-07T10:38:08;29.60;;;23.08;;
56537;SDS011;42435;53.292;6.000;2023-05-07T10:40:34;30.20;;;22.23;;
56537;SDS011;42435;53.292;6.000;2023-05-07T10:43:02;29.08;;;22.80;;
56537;SDS011;42435;53.292;6.000;2023-05-07T10:45:32;26.90;;;21.13;;
56537;SDS011;42435;53.292;6.000;2023-05-07T10:48:14;27.52;;;22.05;;
56537;SDS011;42435;53.292;6.000;2023-05-07T10:50:41;27.40;;;21.35;;
56537;SDS011;42435;53.292;6.000;2023-05-07T10:55:47;29.42;;;21.83;;
56537;SDS011;42435;53.292;6.000;2023-05-07T11:00:46;28.00;;;20.58;;
56537;SDS011;42435;53.292;6.000;2023-05-07T11:03:12;27.73;;;21.13;;
56537;SDS011;42435;53.292;6.000;2023-05-07T11:05:40;26.65;;;20.10;;
56537;SDS011;42435;53.292;6.000;2023-05-07T11:08:07;24.85;;;19.92;;
56537;SDS011;42435;53.292;6.000;2023-05-07T11:16:17;24.17;;;20.17;;
56537;SDS011;42435;53.292;6.000;2023-05-07T11:18:50;25.67;;;20.38;;
56537;SDS011;42435;53.292;6.000;2023-05-07T11:21:31;24.50;;;20.33;;
56537;SDS011;42435;53.292;6.000;2023-05-07T11:24:08;24.13;;;19.33;;
56537;SDS011;42435;53.292;6.000;2023-05-07T11:26:47;25.67;;;20.25;;
56537;SDS011;42435;53.292;6.000;2023-05-07T11:29:17;23.80;;;19.77;;
56537;SDS011;42435;53.292;6.000;2023-05-07T11:31:49;22.00;;;18.83;;
56537;SDS011;42435;53.292;6.000;2023-05-07T11:34:20;24.70;;;20.65;;
56537;SDS011;42435;53.292;6.000;2023-05-07T11:36:50;26.47;;;20.77;;
56537;SDS011;42435;53.292;6.000;2023-05-07T11:39:23;25.10;;;20.02;;
56537;SDS011;42435;53.292;6.000;2023-05-07T11:41:54;23.50;;;20.73;;
56537;SDS011;42435;53.292;6.000;2023-05-07T11:44:20;23.92;;;19.23;;
56537;SDS011;42435;53.292;6.000;2023-05-07T11:46:51;23.73;;;20.33;;
56537;SDS011;42435;53.292;6.000;2023-05-07T11:49:17;22.90;;;19.88;;
56537;SDS011;42435;53.292;6.000;2023-05-07T11:51:47;22.63;;;19.80;;
56537;SDS011;42435;53.292;6.000;2023-05-07T11:54:15;22.75;;;19.35;;
56537;SDS011;42435;53.292;6.000;2023-05-07T11:56:41;23.40;;;19.77;;
56537;SDS011;42435;53.292;6.000;2023-05-07T11:59:06;23.85;;;19.17;;
56537;SDS011;42435;53.292;6.000;2023-05-07T12:01:35;23.40;;;19.35;;
56537;SDS011;42435;53.292;6.000;2023-05-07T12:04:02;24.08;;;18.75;;
56537;SDS011;42435;53.292;6.000;2023-05-07T12:06:30;24.05;;;19.58;;
56537;SDS011;42435;53.292;6.000;2023-05-07T12:08:55;20.38;;;18.17;;
56537;SDS011;42435;53.292;6.000;2023-05-07T12:11:22;21.60;;;18.85;;
56537;SDS011;42435;53.292;6.000;2023-05-07T12:13:50;20.88;;;18.05;;
56537;SDS011;42435;53.292;6.000;2023-05-07T12:16:19;22.50;;;19.00;;
56537;SDS011;42435;53.292;6.000;2023-05-07T12:18:46;23.65;;;18.35;;
56537;SDS011;42435;53.292;6.000;2023-05-07T12:21:12;22.05;;;18.85;;
56537;SDS011;42435;53.292;6.000;2023-05-07T12:23:39;20.08;;;17.92;;
56537;SDS011;42435;53.292;6.000;2023-05-07T12:26:06;23.23;;;17.92;;
56537;SDS011;42435;53.292;6.000;2023-05-07T12:28:37;22.75;;;18.55;;
56537;SDS011;42435;53.292;6.000;2023-05-07T12:31:09;21.60;;;18.05;;
56537;SDS011;42435;53.292;6.000;2023-05-07T12:33:35;21.85;;;18.10;;
56537;SDS011;42435;53.292;6.000;2023-05-07T12:36:05;21.30;;;18.58;;
56537;SDS011;42435;53.292;6.000;2023-05-07T12:38:35;20.10;;;17.75;;
56537;SDS011;42435;53.292;6.000;2023-05-07T12:41:02;19.05;;;17.00;;
56537;SDS011;42435;53.292;6.000;2023-05-07T12:43:32;21.42;;;17.75;;
56537;SDS011;42435;53.292;6.000;2023-05-07T12:45:59;17.08;;;15.27;;
56537;SDS011;42435;53.292;6.000;2023-05-07T12:48:28;18.60;;;16.58;;
56537;SDS011;42435;53.292;6.000;2023-05-07T12:50:54;19.65;;;17.05;;
56537;SDS011;42435;53.292;6.000;2023-05-07T12:53:21;20.75;;;17.10;;
56537;SDS011;42435;53.292;6.000;2023-05-07T12:55:50;20.55;;;18.13;;
56537;SDS011;42435;53.292;6.000;2023-05-07T12:58:21;21.08;;;17.48;;
56537;SDS011;42435;53.292;6.000;2023-05-07T13:00:49;19.48;;;17.45;;
56537;SDS011;42435;53.292;6.000;2023-05-07T13:05:52;19.58;;;16.48;;
56537;SDS011;42435;53.292;6.000;2023-05-07T13:08:25;20.17;;;16.67;;
56537;SDS011;42435;53.292;6.000;2023-05-07T13:11:02;18.15;;;16.17;;
56537;SDS011;42435;53.292;6.000;2023-05-07T13:13:32;18.83;;;16.83;;
56537;SDS011;42435;53.292;6.000;2023-05-07T13:16:02;18.88;;;16.88;;
56537;SDS011;42435;53.292;6.000;2023-05-07T13:18:30;19.70;;;17.13;;
56537;SDS011;42435;53.292;6.000;2023-05-07T13:20:57;22.67;;;16.67;;
56537;SDS011;42435;53.292;6.000;2023-05-07T13:23:23;20.58;;;18.38;;
56537;SDS011;42435;53.292;6.000;2023-05-07T13:25:49;20.25;;;17.05;;
56537;SDS011;42435;53.292;6.000;2023-05-07T13:28:15;19.77;;;17.77;;
56537;SDS011;42435;53.292;6.000;2023-05-07T13:30:42;18.40;;;16.50;;
56537;SDS011;42435;53.292;6.000;2023-05-07T13:33:12;18.40;;;16.40;;
56537;SDS011;42435;53.292;6.000;2023-05-07T13:35:38;18.42;;;16.40;;
56537;SDS011;42435;53.292;6.000;2023-05-07T13:38:07;19.00;;;17.00;;
56537;SDS011;42435;53.292;6.000;2023-05-07T13:40:39;17.65;;;15.50;;
56537;SDS011;42435;53.292;6.000;2023-05-07T13:43:07;17.83;;;16.00;;
56537;SDS011;42435;53.292;6.000;2023-05-07T13:45:32;19.35;;;16.30;;
56537;SDS011;42435;53.292;6.000;2023-05-07T13:47:58;19.80;;;17.50;;
56537;SDS011;42435;53.292;6.000;2023-05-07T13:50:26;17.65;;;15.65;;
56537;SDS011;42435;53.292;6.000;2023-05-07T13:52:54;18.75;;;16.08;;
56537;SDS011;42435;53.292;6.000;2023-05-07T13:55:20;19.33;;;16.52;;
56537;SDS011;42435;53.292;6.000;2023-05-07T13:57:55;17.45;;;15.65;;
56537;SDS011;42435;53.292;6.000;2023-05-07T14:00:23;17.80;;;16.00;;
56537;SDS011;42435;53.292;6.000;2023-05-07T14:02:53;19.17;;;16.55;;
56537;SDS011;42435;53.292;6.000;2023-05-07T14:05:23;18.10;;;16.25;;
56537;SDS011;42435;53.292;6.000;2023-05-07T14:07:52;19.80;;;16.90;;
56537;SDS011;42435;53.292;6.000;2023-05-07T14:10:19;17.05;;;15.32;;
56537;SDS011;42435;53.292;6.000;2023-05-07T14:12:45;18.75;;;16.15;;
56537;SDS011;42435;53.292;6.000;2023-05-07T14:15:11;17.15;;;15.40;;
56537;SDS011;42435;53.292;6.000;2023-05-07T14:17:37;17.75;;;15.80;;
56537;SDS011;42435;53.292;6.000;2023-05-07T14:20:02;18.70;;;16.73;;
56537;SDS011;42435;53.292;6.000;2023-05-07T14:22:28;19.17;;;16.55;;
56537;SDS011;42435;53.292;6.000;2023-05-07T14:24:57;17.15;;;15.35;;
56537;SDS011;42435;53.292;6.000;2023-05-07T14:27:23;18.38;;;16.58;;
56537;SDS011;42435;53.292;6.000;2023-05-07T14:29:48;16.92;;;15.27;;
56537;SDS011;42435;53.292;6.000;2023-05-07T14:32:16;19.13;;;17.15;;
56537;SDS011;42435;53.292;6.000;2023-05-07T14:34:44;16.67;;;14.98;;
56537;SDS011;42435;53.292;6.000;2023-05-07T14:37:10;16.17;;;14.45;;